sensor_id;sensor_type;location;lat;lon;timestamp;P1;durP1;ratioP1;P2;durP2;ratioP2
22468;SDS011;11401;50.792;4.352;2022-12-07T00:01:29;10.38;;;8.05;;
22468;SDS011;11401;50.792;4.352;2022-12-07T00:03:58;11.70;;;7.97;;
22468;SDS011;11401;50.792;4.352;2022-12-07T00:06:32;10.60;;;7.60;;
22468;SDS011;11401;50.792;4.352;2022-12-07T00:09:01;10.75;;;7.35;;
22468;SDS011;11401;50.792;4.352;2022-12-07T00:11:28;9.40;;;7.47;;
22468;SDS011;11401;50.792;4.352;2022-12-07T00:13:56;9.50;;;7.78;;
22468;SDS011;11401;50.792;4.352;2022-12-07T00:16:26;10.10;;;7.93;;
22468;SDS011;11401;50.792;4.352;2022-12-07T00:18:55;10.98;;;8.05;;
22468;SDS011;11401;50.792;4.352;2022-12-07T00:21:24;9.23;;;7.35;;
22468;SDS011;11401;50.792;4.352;2022-12-07T00:23:52;9.43;;;8.13;;
22468;SDS011;11401;50.792;4.352;2022-12-07T00:26:24;8.90;;;7.30;;
22468;SDS011;11401;50.792;4.352;2022-12-07T00:29:02;9.05;;;7.93;;
22468;SDS011;11401;50.792;4.352;2022-12-07T00:31:32;13.98;;;8.45;;
22468;SDS011;11401;50.792;4.352;2022-12-07T00:34:05;11.48;;;8.07;;
22468;SDS011;11401;50.792;4.352;2022-12-07T00:36:34;9.60;;;7.35;;
22468;SDS011;11401;50.792;4.352;2022-12-07T00:39:01;11.38;;;8.15;;
22468;SDS011;11401;50.792;4.352;2022-12-07T00:41:28;10.68;;;7.72;;
22468;SDS011;11401;50.792;4.352;2022-12-07T00:43:56;13.93;;;7.30;;
22468;SDS011;11401;50.792;4.352;2022-12-07T00:46:23;10.93;;;8.18;;
22468;SDS011;11401;50.792;4.352;2022-12-07T00:48:51;9.63;;;7.85;;
22468;SDS011;11401;50.792;4.352;2022-12-07T00:51:19;11.20;;;7.90;;
22468;SDS011;11401;50.792;4.352;2022-12-07T00:53:48;8.93;;;6.90;;
22468;SDS011;11401;50.792;4.352;2022-12-07T00:56:17;8.43;;;7.55;;
22468;SDS011;11401;50.792;4.352;2022-12-07T00:58:53;10.38;;;7.03;;
22468;SDS011;11401;50.792;4.352;2022-12-07T01:01:22;8.05;;;6.72;;
22468;SDS011;11401;50.792;4.352;2022-12-07T01:03:50;13.70;;;7.82;;
22468;SDS011;11401;50.792;4.352;2022-12-07T01:06:18;12.52;;;7.93;;
22468;SDS011;11401;50.792;4.352;2022-12-07T01:08:46;9.48;;;7.75;;
22468;SDS011;11401;50.792;4.352;2022-12-07T01:11:14;9.65;;;8.18;;
22468;SDS011;11401;50.792;4.352;2022-12-07T01:13:43;12.55;;;7.82;;
22468;SDS011;11401;50.792;4.352;2022-12-07T01:16:14;10.02;;;7.32;;
22468;SDS011;11401;50.792;4.352;2022-12-07T01:18:42;13.70;;;8.05;;
22468;SDS011;11401;50.792;4.352;2022-12-07T01:21:14;8.43;;;7.50;;
22468;SDS011;11401;50.792;4.352;2022-12-07T01:23:41;7.80;;;6.97;;
22468;SDS011;11401;50.792;4.352;2022-12-07T01:26:13;9.52;;;7.10;;
22468;SDS011;11401;50.792;4.352;2022-12-07T01:28:42;14.05;;;7.47;;
22468;SDS011;11401;50.792;4.352;2022-12-07T01:31:11;11.25;;;7.80;;
22468;SDS011;11401;50.792;4.352;2022-12-07T01:33:44;9.30;;;7.65;;
22468;SDS011;11401;50.792;4.352;2022-12-07T01:36:14;10.70;;;7.35;;
22468;SDS011;11401;50.792;4.352;2022-12-07T01:38:46;9.25;;;6.82;;
22468;SDS011;11401;50.792;4.352;2022-12-07T01:41:15;9.18;;;7.38;;
22468;SDS011;11401;50.792;4.352;2022-12-07T01:46:55;8.10;;;7.25;;
22468;SDS011;11401;50.792;4.352;2022-12-07T01:49:27;9.98;;;7.38;;
22468;SDS011;11401;50.792;4.352;2022-12-07T01:52:00;12.45;;;7.20;;
22468;SDS011;11401;50.792;4.352;2022-12-07T01:54:36;9.73;;;7.82;;
22468;SDS011;11401;50.792;4.352;2022-12-07T01:57:03;10.93;;;7.75;;
22468;SDS011;11401;50.792;4.352;2022-12-07T01:59:33;9.65;;;6.85;;
22468;SDS011;11401;50.792;4.352;2022-12-07T02:02:00;11.48;;;7.20;;
22468;SDS011;11401;50.792;4.352;2022-12-07T02:04:30;8.35;;;6.97;;
22468;SDS011;11401;50.792;4.352;2022-12-07T02:06:57;8.18;;;7.22;;
22468;SDS011;11401;50.792;4.352;2022-12-07T02:09:24;7.50;;;6.78;;
22468;SDS011;11401;50.792;4.352;2022-12-07T02:11:51;8.75;;;7.38;;
22468;SDS011;11401;50.792;4.352;2022-12-07T02:14:20;9.63;;;6.57;;
22468;SDS011;11401;50.792;4.352;2022-12-07T02:22:30;10.43;;;8.02;;
22468;SDS011;11401;50.792;4.352;2022-12-07T02:30:32;10.80;;;7.53;;
22468;SDS011;11401;50.792;4.352;2022-12-07T02:33:13;8.82;;;6.95;;
22468;SDS011;11401;50.792;4.352;2022-12-07T02:39:00;9.20;;;7.45;;
22468;SDS011;11401;50.792;4.352;2022-12-07T02:41:40;9.82;;;7.47;;
22468;SDS011;11401;50.792;4.352;2022-12-07T02:44:13;9.32;;;7.18;;
22468;SDS011;11401;50.792;4.352;2022-12-07T02:46:48;7.90;;;7.03;;
22468;SDS011;11401;50.792;4.352;2022-12-07T02:49:21;7.97;;;6.82;;
22468;SDS011;11401;50.792;4.352;2022-12-07T02:51:51;9.10;;;7.43;;
22468;SDS011;11401;50.792;4.352;2022-12-07T02:54:19;8.82;;;7.25;;
22468;SDS011;11401;50.792;4.352;2022-12-07T02:56:48;12.80;;;7.88;;
22468;SDS011;11401;50.792;4.352;2022-12-07T03:02:24;12.95;;;8.00;;
22468;SDS011;11401;50.792;4.352;2022-12-07T03:13:13;9.05;;;6.70;;
22468;SDS011;11401;50.792;4.352;2022-12-07T03:16:15;11.23;;;6.47;;
22468;SDS011;11401;50.792;4.352;2022-12-07T03:19:29;9.75;;;6.90;;
22468;SDS011;11401;50.792;4.352;2022-12-07T03:21:40;7.88;;;6.35;;
22468;SDS011;11401;50.792;4.352;2022-12-07T03:24:15;7.97;;;6.43;;
22468;SDS011;11401;50.792;4.352;2022-12-07T03:26:46;10.35;;;7.40;;
22468;SDS011;11401;50.792;4.352;2022-12-07T03:29:19;6.82;;;5.53;;
22468;SDS011;11401;50.792;4.352;2022-12-07T03:31:54;8.20;;;6.57;;
22468;SDS011;11401;50.792;4.352;2022-12-07T03:34:29;7.93;;;6.25;;
22468;SDS011;11401;50.792;4.352;2022-12-07T03:40:21;7.63;;;6.55;;
22468;SDS011;11401;50.792;4.352;2022-12-07T03:43:01;7.32;;;6.15;;
22468;SDS011;11401;50.792;4.352;2022-12-07T03:45:39;7.55;;;6.35;;
22468;SDS011;11401;50.792;4.352;2022-12-07T03:50:57;11.55;;;7.57;;
22468;SDS011;11401;50.792;4.352;2022-12-07T03:56:02;10.15;;;6.35;;
22468;SDS011;11401;50.792;4.352;2022-12-07T03:58:30;7.28;;;6.57;;
22468;SDS011;11401;50.792;4.352;2022-12-07T04:00:58;6.43;;;5.80;;
22468;SDS011;11401;50.792;4.352;2022-12-07T04:03:25;7.43;;;6.53;;
22468;SDS011;11401;50.792;4.352;2022-12-07T04:05:53;9.27;;;6.95;;
22468;SDS011;11401;50.792;4.352;2022-12-07T04:08:20;7.75;;;6.30;;
22468;SDS011;11401;50.792;4.352;2022-12-07T04:10:47;7.93;;;6.30;;
22468;SDS011;11401;50.792;4.352;2022-12-07T04:13:14;7.72;;;6.60;;
22468;SDS011;11401;50.792;4.352;2022-12-07T04:15:41;6.78;;;6.03;;
22468;SDS011;11401;50.792;4.352;2022-12-07T04:18:08;10.63;;;6.72;;
22468;SDS011;11401;50.792;4.352;2022-12-07T04:20:35;8.00;;;6.57;;
22468;SDS011;11401;50.792;4.352;2022-12-07T04:23:02;7.63;;;5.97;;
22468;SDS011;11401;50.792;4.352;2022-12-07T04:25:29;8.88;;;6.68;;
22468;SDS011;11401;50.792;4.352;2022-12-07T04:27:56;8.93;;;6.70;;
22468;SDS011;11401;50.792;4.352;2022-12-07T04:30:23;7.95;;;6.10;;
22468;SDS011;11401;50.792;4.352;2022-12-07T04:32:50;6.25;;;5.57;;
22468;SDS011;11401;50.792;4.352;2022-12-07T04:35:17;8.93;;;6.50;;
22468;SDS011;11401;50.792;4.352;2022-12-07T04:37:44;7.72;;;6.38;;
22468;SDS011;11401;50.792;4.352;2022-12-07T04:40:11;7.10;;;6.15;;
22468;SDS011;11401;50.792;4.352;2022-12-07T04:42:40;6.75;;;6.15;;
22468;SDS011;11401;50.792;4.352;2022-12-07T04:45:07;6.15;;;5.55;;
22468;SDS011;11401;50.792;4.352;2022-12-07T04:47:35;7.72;;;6.50;;
22468;SDS011;11401;50.792;4.352;2022-12-07T04:50:02;8.05;;;6.00;;
22468;SDS011;11401;50.792;4.352;2022-12-07T04:52:30;7.57;;;6.40;;
22468;SDS011;11401;50.792;4.352;2022-12-07T04:54:57;7.20;;;5.38;;
22468;SDS011;11401;50.792;4.352;2022-12-07T04:57:24;8.43;;;6.43;;
22468;SDS011;11401;50.792;4.352;2022-12-07T04:59:51;7.30;;;6.25;;
22468;SDS011;11401;50.792;4.352;2022-12-07T05:02:18;6.50;;;5.93;;
22468;SDS011;11401;50.792;4.352;2022-12-07T05:04:45;6.65;;;5.90;;
22468;SDS011;11401;50.792;4.352;2022-12-07T05:07:12;6.68;;;6.00;;
22468;SDS011;11401;50.792;4.352;2022-12-07T05:09:38;6.85;;;6.15;;
22468;SDS011;11401;50.792;4.352;2022-12-07T05:12:05;8.00;;;6.32;;
22468;SDS011;11401;50.792;4.352;2022-12-07T05:14:32;8.45;;;5.57;;
22468;SDS011;11401;50.792;4.352;2022-12-07T05:16:59;6.07;;;5.22;;
22468;SDS011;11401;50.792;4.352;2022-12-07T05:19:26;7.53;;;5.63;;
22468;SDS011;11401;50.792;4.352;2022-12-07T05:21:53;8.25;;;6.53;;
22468;SDS011;11401;50.792;4.352;2022-12-07T05:24:20;6.90;;;6.05;;
22468;SDS011;11401;50.792;4.352;2022-12-07T05:26:47;7.75;;;6.38;;
22468;SDS011;11401;50.792;4.352;2022-12-07T05:29:15;6.47;;;5.88;;
22468;SDS011;11401;50.792;4.352;2022-12-07T05:31:43;10.95;;;5.78;;
22468;SDS011;11401;50.792;4.352;2022-12-07T05:34:11;6.55;;;5.93;;
22468;SDS011;11401;50.792;4.352;2022-12-07T05:36:38;6.72;;;6.10;;
22468;SDS011;11401;50.792;4.352;2022-12-07T05:39:05;9.70;;;6.00;;
22468;SDS011;11401;50.792;4.352;2022-12-07T05:41:33;6.40;;;5.53;;
22468;SDS011;11401;50.792;4.352;2022-12-07T05:44:19;7.38;;;5.55;;
22468;SDS011;11401;50.792;4.352;2022-12-07T05:46:46;7.32;;;5.13;;
22468;SDS011;11401;50.792;4.352;2022-12-07T05:49:13;7.03;;;5.40;;
22468;SDS011;11401;50.792;4.352;2022-12-07T05:51:40;5.70;;;5.20;;
22468;SDS011;11401;50.792;4.352;2022-12-07T05:54:06;9.27;;;6.80;;
22468;SDS011;11401;50.792;4.352;2022-12-07T05:56:33;9.02;;;5.70;;
22468;SDS011;11401;50.792;4.352;2022-12-07T05:59:00;6.40;;;5.80;;
22468;SDS011;11401;50.792;4.352;2022-12-07T06:01:46;6.68;;;5.93;;
22468;SDS011;11401;50.792;4.352;2022-12-07T06:04:13;7.45;;;5.90;;
22468;SDS011;11401;50.792;4.352;2022-12-07T06:06:42;7.15;;;5.60;;
22468;SDS011;11401;50.792;4.352;2022-12-07T06:09:09;6.15;;;5.55;;
22468;SDS011;11401;50.792;4.352;2022-12-07T06:11:36;7.07;;;6.10;;
22468;SDS011;11401;50.792;4.352;2022-12-07T06:14:21;7.45;;;5.50;;
22468;SDS011;11401;50.792;4.352;2022-12-07T06:16:48;7.95;;;6.03;;
22468;SDS011;11401;50.792;4.352;2022-12-07T06:19:16;7.32;;;6.13;;
22468;SDS011;11401;50.792;4.352;2022-12-07T06:21:43;8.50;;;6.03;;
22468;SDS011;11401;50.792;4.352;2022-12-07T06:24:13;7.57;;;6.00;;
22468;SDS011;11401;50.792;4.352;2022-12-07T06:26:41;9.65;;;6.63;;
22468;SDS011;11401;50.792;4.352;2022-12-07T06:29:09;8.63;;;6.47;;
22468;SDS011;11401;50.792;4.352;2022-12-07T06:31:36;8.55;;;6.57;;
22468;SDS011;11401;50.792;4.352;2022-12-07T06:34:05;12.90;;;6.20;;
22468;SDS011;11401;50.792;4.352;2022-12-07T06:36:35;5.72;;;5.20;;
22468;SDS011;11401;50.792;4.352;2022-12-07T06:39:03;7.75;;;5.70;;
22468;SDS011;11401;50.792;4.352;2022-12-07T06:41:31;8.15;;;6.25;;
22468;SDS011;11401;50.792;4.352;2022-12-07T06:43:58;8.30;;;6.45;;
22468;SDS011;11401;50.792;4.352;2022-12-07T06:46:25;7.55;;;6.68;;
22468;SDS011;11401;50.792;4.352;2022-12-07T06:48:52;7.97;;;6.70;;
22468;SDS011;11401;50.792;4.352;2022-12-07T06:51:19;11.63;;;6.28;;
22468;SDS011;11401;50.792;4.352;2022-12-07T06:53:46;7.90;;;6.50;;
22468;SDS011;11401;50.792;4.352;2022-12-07T06:56:13;7.68;;;6.55;;
22468;SDS011;11401;50.792;4.352;2022-12-07T06:58:41;7.70;;;6.15;;
22468;SDS011;11401;50.792;4.352;2022-12-07T07:01:09;6.88;;;5.93;;
22468;SDS011;11401;50.792;4.352;2022-12-07T07:03:37;6.82;;;6.13;;
22468;SDS011;11401;50.792;4.352;2022-12-07T07:06:04;7.32;;;5.53;;
22468;SDS011;11401;50.792;4.352;2022-12-07T07:08:32;6.90;;;5.53;;
22468;SDS011;11401;50.792;4.352;2022-12-07T07:11:00;9.55;;;5.80;;
22468;SDS011;11401;50.792;4.352;2022-12-07T07:13:28;7.18;;;5.82;;
22468;SDS011;11401;50.792;4.352;2022-12-07T07:15:55;6.90;;;5.35;;
22468;SDS011;11401;50.792;4.352;2022-12-07T07:18:22;9.13;;;7.28;;
22468;SDS011;11401;50.792;4.352;2022-12-07T07:20:52;9.25;;;5.95;;
22468;SDS011;11401;50.792;4.352;2022-12-07T07:23:20;8.55;;;6.07;;
22468;SDS011;11401;50.792;4.352;2022-12-07T07:25:47;8.75;;;6.35;;
22468;SDS011;11401;50.792;4.352;2022-12-07T07:28:14;8.95;;;6.07;;
22468;SDS011;11401;50.792;4.352;2022-12-07T07:30:41;8.80;;;5.97;;
22468;SDS011;11401;50.792;4.352;2022-12-07T07:33:09;11.43;;;6.90;;
22468;SDS011;11401;50.792;4.352;2022-12-07T07:35:36;5.72;;;5.22;;
22468;SDS011;11401;50.792;4.352;2022-12-07T07:38:05;7.93;;;6.15;;
22468;SDS011;11401;50.792;4.352;2022-12-07T07:40:32;7.75;;;5.65;;
22468;SDS011;11401;50.792;4.352;2022-12-07T07:42:59;8.73;;;5.93;;
22468;SDS011;11401;50.792;4.352;2022-12-07T07:45:26;10.88;;;5.50;;
22468;SDS011;11401;50.792;4.352;2022-12-07T07:47:54;7.78;;;6.25;;
22468;SDS011;11401;50.792;4.352;2022-12-07T07:50:21;10.80;;;6.75;;
22468;SDS011;11401;50.792;4.352;2022-12-07T07:52:49;10.15;;;5.75;;
22468;SDS011;11401;50.792;4.352;2022-12-07T07:55:16;7.60;;;6.38;;
22468;SDS011;11401;50.792;4.352;2022-12-07T07:57:43;10.95;;;5.65;;
22468;SDS011;11401;50.792;4.352;2022-12-07T08:00:18;9.52;;;5.95;;
22468;SDS011;11401;50.792;4.352;2022-12-07T08:02:45;9.38;;;5.20;;
22468;SDS011;11401;50.792;4.352;2022-12-07T08:05:13;7.30;;;5.47;;
22468;SDS011;11401;50.792;4.352;2022-12-07T08:07:40;9.45;;;6.50;;
22468;SDS011;11401;50.792;4.352;2022-12-07T08:10:09;11.73;;;6.47;;
22468;SDS011;11401;50.792;4.352;2022-12-07T08:12:39;9.68;;;6.50;;
22468;SDS011;11401;50.792;4.352;2022-12-07T08:15:28;13.70;;;6.55;;
22468;SDS011;11401;50.792;4.352;2022-12-07T08:17:57;9.63;;;6.38;;
22468;SDS011;11401;50.792;4.352;2022-12-07T08:20:24;6.63;;;5.93;;
22468;SDS011;11401;50.792;4.352;2022-12-07T08:22:51;10.90;;;6.25;;
22468;SDS011;11401;50.792;4.352;2022-12-07T08:25:18;12.65;;;9.82;;
22468;SDS011;11401;50.792;4.352;2022-12-07T08:27:45;8.90;;;6.40;;
22468;SDS011;11401;50.792;4.352;2022-12-07T08:30:12;10.77;;;6.32;;
22468;SDS011;11401;50.792;4.352;2022-12-07T08:32:39;11.02;;;6.32;;
22468;SDS011;11401;50.792;4.352;2022-12-07T08:35:06;7.32;;;5.88;;
22468;SDS011;11401;50.792;4.352;2022-12-07T08:37:35;9.75;;;6.32;;
22468;SDS011;11401;50.792;4.352;2022-12-07T08:40:03;9.25;;;6.88;;
22468;SDS011;11401;50.792;4.352;2022-12-07T08:42:32;7.57;;;6.43;;
22468;SDS011;11401;50.792;4.352;2022-12-07T08:45:08;9.65;;;5.75;;
22468;SDS011;11401;50.792;4.352;2022-12-07T08:47:56;7.93;;;6.25;;
22468;SDS011;11401;50.792;4.352;2022-12-07T08:50:36;10.80;;;6.63;;
22468;SDS011;11401;50.792;4.352;2022-12-07T08:53:07;10.10;;;6.00;;
22468;SDS011;11401;50.792;4.352;2022-12-07T08:55:34;16.15;;;6.32;;
22468;SDS011;11401;50.792;4.352;2022-12-07T08:58:01;7.78;;;5.85;;
22468;SDS011;11401;50.792;4.352;2022-12-07T09:00:29;7.65;;;6.43;;
22468;SDS011;11401;50.792;4.352;2022-12-07T09:02:56;14.30;;;6.68;;
22468;SDS011;11401;50.792;4.352;2022-12-07T09:05:23;10.48;;;6.05;;
22468;SDS011;11401;50.792;4.352;2022-12-07T09:07:54;8.43;;;6.13;;
22468;SDS011;11401;50.792;4.352;2022-12-07T09:10:24;8.75;;;6.32;;
22468;SDS011;11401;50.792;4.352;2022-12-07T09:12:52;7.78;;;5.78;;
22468;SDS011;11401;50.792;4.352;2022-12-07T09:15:19;11.95;;;6.43;;
22468;SDS011;11401;50.792;4.352;2022-12-07T09:17:46;10.75;;;5.28;;
22468;SDS011;11401;50.792;4.352;2022-12-07T09:20:13;9.18;;;5.68;;
22468;SDS011;11401;50.792;4.352;2022-12-07T09:22:40;8.52;;;5.63;;
22468;SDS011;11401;50.792;4.352;2022-12-07T09:25:07;8.70;;;5.60;;
22468;SDS011;11401;50.792;4.352;2022-12-07T09:27:34;14.45;;;6.80;;
22468;SDS011;11401;50.792;4.352;2022-12-07T09:30:01;7.70;;;5.78;;
22468;SDS011;11401;50.792;4.352;2022-12-07T09:32:30;8.65;;;5.80;;
22468;SDS011;11401;50.792;4.352;2022-12-07T09:34:57;11.45;;;5.97;;
22468;SDS011;11401;50.792;4.352;2022-12-07T09:37:23;10.15;;;5.55;;
22468;SDS011;11401;50.792;4.352;2022-12-07T09:39:51;7.95;;;5.47;;
22468;SDS011;11401;50.792;4.352;2022-12-07T09:42:37;8.95;;;5.43;;
22468;SDS011;11401;50.792;4.352;2022-12-07T09:45:07;9.02;;;5.47;;
22468;SDS011;11401;50.792;4.352;2022-12-07T09:47:40;7.47;;;5.68;;
22468;SDS011;11401;50.792;4.352;2022-12-07T09:50:29;12.55;;;5.45;;
22468;SDS011;11401;50.792;4.352;2022-12-07T09:53:04;7.72;;;4.97;;
22468;SDS011;11401;50.792;4.352;2022-12-07T09:56:05;6.55;;;5.07;;
22468;SDS011;11401;50.792;4.352;2022-12-07T09:58:32;9.32;;;5.22;;
22468;SDS011;11401;50.792;4.352;2022-12-07T10:01:01;5.40;;;4.55;;
22468;SDS011;11401;50.792;4.352;2022-12-07T10:03:32;7.35;;;5.00;;
22468;SDS011;11401;50.792;4.352;2022-12-07T10:05:59;6.07;;;4.93;;
22468;SDS011;11401;50.792;4.352;2022-12-07T10:08:26;8.93;;;5.32;;
22468;SDS011;11401;50.792;4.352;2022-12-07T10:10:54;7.30;;;4.50;;
22468;SDS011;11401;50.792;4.352;2022-12-07T10:13:34;6.07;;;4.57;;
22468;SDS011;11401;50.792;4.352;2022-12-07T10:16:03;8.38;;;5.15;;
22468;SDS011;11401;50.792;4.352;2022-12-07T10:21:21;10.85;;;5.20;;
22468;SDS011;11401;50.792;4.352;2022-12-07T10:24:03;5.60;;;4.75;;
22468;SDS011;11401;50.792;4.352;2022-12-07T10:26:35;9.07;;;5.45;;
22468;SDS011;11401;50.792;4.352;2022-12-07T10:32:00;7.80;;;5.10;;
22468;SDS011;11401;50.792;4.352;2022-12-07T10:44:49;11.20;;;4.78;;
22468;SDS011;11401;50.792;4.352;2022-12-07T10:56:04;7.18;;;4.85;;
22468;SDS011;11401;50.792;4.352;2022-12-07T11:02:14;9.57;;;4.70;;
22468;SDS011;11401;50.792;4.352;2022-12-07T11:10:26;9.80;;;5.18;;
22468;SDS011;11401;50.792;4.352;2022-12-07T11:16:12;7.60;;;4.80;;
22468;SDS011;11401;50.792;4.352;2022-12-07T11:19:02;6.40;;;3.50;;
22468;SDS011;11401;50.792;4.352;2022-12-07T11:24:17;5.63;;;4.15;;
22468;SDS011;11401;50.792;4.352;2022-12-07T11:32:16;8.15;;;3.95;;
22468;SDS011;11401;50.792;4.352;2022-12-07T11:35:08;5.20;;;4.13;;
22468;SDS011;11401;50.792;4.352;2022-12-07T11:38:00;8.70;;;4.78;;
22468;SDS011;11401;50.792;4.352;2022-12-07T11:40:35;4.40;;;3.88;;
22468;SDS011;11401;50.792;4.352;2022-12-07T11:45:57;9.68;;;4.88;;
22468;SDS011;11401;50.792;4.352;2022-12-07T11:51:18;6.10;;;3.83;;
22468;SDS011;11401;50.792;4.352;2022-12-07T11:53:54;4.90;;;3.35;;
22468;SDS011;11401;50.792;4.352;2022-12-07T11:56:39;5.30;;;3.47;;
22468;SDS011;11401;50.792;4.352;2022-12-07T12:01:52;7.57;;;3.78;;
22468;SDS011;11401;50.792;4.352;2022-12-07T12:04:40;5.38;;;3.92;;
22468;SDS011;11401;50.792;4.352;2022-12-07T12:07:25;5.30;;;3.53;;
22468;SDS011;11401;50.792;4.352;2022-12-07T12:21:54;5.32;;;4.22;;
22468;SDS011;11401;50.792;4.352;2022-12-07T12:24:26;4.47;;;2.85;;
22468;SDS011;11401;50.792;4.352;2022-12-07T12:26:59;4.88;;;2.83;;
22468;SDS011;11401;50.792;4.352;2022-12-07T12:29:34;5.20;;;2.95;;
22468;SDS011;11401;50.792;4.352;2022-12-07T12:32:19;4.70;;;2.97;;
22468;SDS011;11401;50.792;4.352;2022-12-07T12:37:53;5.07;;;2.70;;
22468;SDS011;11401;50.792;4.352;2022-12-07T12:45:19;4.55;;;2.40;;
22468;SDS011;11401;50.792;4.352;2022-12-07T12:47:52;7.13;;;3.03;;
22468;SDS011;11401;50.792;4.352;2022-12-07T12:50:27;4.13;;;2.55;;
22468;SDS011;11401;50.792;4.352;2022-12-07T12:52:56;2.83;;;2.45;;
22468;SDS011;11401;50.792;4.352;2022-12-07T12:55:45;7.10;;;2.53;;
22468;SDS011;11401;50.792;4.352;2022-12-07T12:58:31;5.82;;;2.67;;
22468;SDS011;11401;50.792;4.352;2022-12-07T13:04:03;5.65;;;2.63;;
22468;SDS011;11401;50.792;4.352;2022-12-07T13:06:44;3.60;;;2.53;;
22468;SDS011;11401;50.792;4.352;2022-12-07T13:09:20;3.97;;;2.50;;
22468;SDS011;11401;50.792;4.352;2022-12-07T13:12:00;3.90;;;2.25;;
22468;SDS011;11401;50.792;4.352;2022-12-07T13:17:10;6.03;;;2.97;;
22468;SDS011;11401;50.792;4.352;2022-12-07T13:27:48;3.40;;;2.60;;
22468;SDS011;11401;50.792;4.352;2022-12-07T13:30:24;3.97;;;2.15;;
22468;SDS011;11401;50.792;4.352;2022-12-07T13:32:52;5.00;;;2.90;;
22468;SDS011;11401;50.792;4.352;2022-12-07T13:35:30;7.38;;;2.55;;
22468;SDS011;11401;50.792;4.352;2022-12-07T13:38:02;4.70;;;2.80;;
22468;SDS011;11401;50.792;4.352;2022-12-07T13:40:32;3.03;;;2.50;;
22468;SDS011;11401;50.792;4.352;2022-12-07T13:43:02;4.70;;;2.70;;
22468;SDS011;11401;50.792;4.352;2022-12-07T13:45:32;4.30;;;2.70;;
22468;SDS011;11401;50.792;4.352;2022-12-07T13:48:17;2.72;;;2.50;;
22468;SDS011;11401;50.792;4.352;2022-12-07T13:50:52;3.05;;;2.20;;
22468;SDS011;11401;50.792;4.352;2022-12-07T13:53:21;3.47;;;2.72;;
22468;SDS011;11401;50.792;4.352;2022-12-07T13:55:48;5.35;;;2.75;;
22468;SDS011;11401;50.792;4.352;2022-12-07T13:58:20;5.00;;;2.47;;
22468;SDS011;11401;50.792;4.352;2022-12-07T14:00:48;3.85;;;2.63;;
22468;SDS011;11401;50.792;4.352;2022-12-07T14:05:42;4.38;;;2.80;;
22468;SDS011;11401;50.792;4.352;2022-12-07T14:15:55;6.85;;;2.60;;
22468;SDS011;11401;50.792;4.352;2022-12-07T14:18:25;2.97;;;2.47;;
22468;SDS011;11401;50.792;4.352;2022-12-07T14:23:37;3.90;;;2.30;;
22468;SDS011;11401;50.792;4.352;2022-12-07T14:26:15;5.18;;;2.58;;
22468;SDS011;11401;50.792;4.352;2022-12-07T14:28:45;6.18;;;2.50;;
22468;SDS011;11401;50.792;4.352;2022-12-07T14:31:13;3.95;;;2.22;;
22468;SDS011;11401;50.792;4.352;2022-12-07T14:33:58;3.72;;;2.38;;
22468;SDS011;11401;50.792;4.352;2022-12-07T14:36:25;5.25;;;2.45;;
22468;SDS011;11401;50.792;4.352;2022-12-07T14:38:53;6.13;;;2.60;;
22468;SDS011;11401;50.792;4.352;2022-12-07T14:41:22;8.20;;;3.03;;
22468;SDS011;11401;50.792;4.352;2022-12-07T14:44:10;4.13;;;2.75;;
22468;SDS011;11401;50.792;4.352;2022-12-07T14:46:58;5.28;;;2.65;;
22468;SDS011;11401;50.792;4.352;2022-12-07T14:49:45;3.92;;;1.80;;
22468;SDS011;11401;50.792;4.352;2022-12-07T14:52:23;7.25;;;2.13;;
22468;SDS011;11401;50.792;4.352;2022-12-07T14:55:14;2.72;;;2.03;;
22468;SDS011;11401;50.792;4.352;2022-12-07T14:57:50;5.55;;;1.92;;
22468;SDS011;11401;50.792;4.352;2022-12-07T15:00:18;2.13;;;1.80;;
22468;SDS011;11401;50.792;4.352;2022-12-07T15:02:46;1.80;;;1.67;;
22468;SDS011;11401;50.792;4.352;2022-12-07T15:05:15;8.57;;;2.30;;
22468;SDS011;11401;50.792;4.352;2022-12-07T15:07:44;2.67;;;1.88;;
22468;SDS011;11401;50.792;4.352;2022-12-07T15:10:22;3.00;;;1.80;;
22468;SDS011;11401;50.792;4.352;2022-12-07T15:12:50;2.15;;;1.45;;
22468;SDS011;11401;50.792;4.352;2022-12-07T15:15:17;1.90;;;1.70;;
22468;SDS011;11401;50.792;4.352;2022-12-07T15:17:44;3.40;;;1.80;;
22468;SDS011;11401;50.792;4.352;2022-12-07T15:20:12;1.80;;;1.50;;
22468;SDS011;11401;50.792;4.352;2022-12-07T15:22:43;4.50;;;2.20;;
22468;SDS011;11401;50.792;4.352;2022-12-07T15:25:12;1.73;;;1.60;;
22468;SDS011;11401;50.792;4.352;2022-12-07T15:27:40;2.42;;;2.00;;
22468;SDS011;11401;50.792;4.352;2022-12-07T15:30:07;4.00;;;2.50;;
22468;SDS011;11401;50.792;4.352;2022-12-07T15:32:34;5.30;;;2.50;;
22468;SDS011;11401;50.792;4.352;2022-12-07T15:35:01;3.15;;;2.33;;
22468;SDS011;11401;50.792;4.352;2022-12-07T15:37:29;4.45;;;2.50;;
22468;SDS011;11401;50.792;4.352;2022-12-07T15:39:56;3.60;;;2.03;;
22468;SDS011;11401;50.792;4.352;2022-12-07T15:42:29;4.07;;;3.10;;
22468;SDS011;11401;50.792;4.352;2022-12-07T15:44:56;4.05;;;3.25;;
22468;SDS011;11401;50.792;4.352;2022-12-07T15:47:40;4.22;;;3.05;;
22468;SDS011;11401;50.792;4.352;2022-12-07T15:50:28;5.53;;;3.30;;
22468;SDS011;11401;50.792;4.352;2022-12-07T15:52:55;3.97;;;3.60;;
22468;SDS011;11401;50.792;4.352;2022-12-07T15:55:22;4.18;;;3.50;;
22468;SDS011;11401;50.792;4.352;2022-12-07T15:57:49;9.32;;;3.90;;
22468;SDS011;11401;50.792;4.352;2022-12-07T16:00:16;4.72;;;3.05;;
22468;SDS011;11401;50.792;4.352;2022-12-07T16:02:43;3.17;;;2.85;;
22468;SDS011;11401;50.792;4.352;2022-12-07T16:05:10;6.07;;;3.28;;
22468;SDS011;11401;50.792;4.352;2022-12-07T16:07:38;6.55;;;2.88;;
22468;SDS011;11401;50.792;4.352;2022-12-07T16:10:05;4.15;;;2.55;;
22468;SDS011;11401;50.792;4.352;2022-12-07T16:12:32;4.63;;;3.17;;
22468;SDS011;11401;50.792;4.352;2022-12-07T16:14:59;3.85;;;2.35;;
22468;SDS011;11401;50.792;4.352;2022-12-07T16:17:27;3.13;;;2.83;;
22468;SDS011;11401;50.792;4.352;2022-12-07T16:19:54;4.45;;;3.20;;
22468;SDS011;11401;50.792;4.352;2022-12-07T16:22:21;4.75;;;2.95;;
22468;SDS011;11401;50.792;4.352;2022-12-07T16:24:48;6.82;;;3.30;;
22468;SDS011;11401;50.792;4.352;2022-12-07T16:27:15;8.82;;;3.08;;
22468;SDS011;11401;50.792;4.352;2022-12-07T16:29:42;3.20;;;2.80;;
22468;SDS011;11401;50.792;4.352;2022-12-07T16:32:09;3.95;;;2.85;;
22468;SDS011;11401;50.792;4.352;2022-12-07T16:34:36;3.08;;;2.85;;
22468;SDS011;11401;50.792;4.352;2022-12-07T16:37:03;5.78;;;3.55;;
22468;SDS011;11401;50.792;4.352;2022-12-07T16:39:31;3.75;;;2.63;;
22468;SDS011;11401;50.792;4.352;2022-12-07T16:41:59;3.55;;;3.08;;
22468;SDS011;11401;50.792;4.352;2022-12-07T16:44:26;3.55;;;2.60;;
22468;SDS011;11401;50.792;4.352;2022-12-07T16:46:53;3.58;;;2.63;;
22468;SDS011;11401;50.792;4.352;2022-12-07T16:49:20;3.38;;;2.83;;
22468;SDS011;11401;50.792;4.352;2022-12-07T16:51:50;4.65;;;3.63;;
22468;SDS011;11401;50.792;4.352;2022-12-07T16:54:37;5.45;;;2.83;;
22468;SDS011;11401;50.792;4.352;2022-12-07T16:57:04;6.40;;;3.13;;
22468;SDS011;11401;50.792;4.352;2022-12-07T16:59:31;2.33;;;2.13;;
22468;SDS011;11401;50.792;4.352;2022-12-07T17:01:58;4.90;;;2.80;;
22468;SDS011;11401;50.792;4.352;2022-12-07T17:04:25;2.92;;;2.72;;
22468;SDS011;11401;50.792;4.352;2022-12-07T17:06:52;3.47;;;2.80;;
22468;SDS011;11401;50.792;4.352;2022-12-07T17:09:19;3.83;;;2.97;;
22468;SDS011;11401;50.792;4.352;2022-12-07T17:11:47;4.05;;;2.83;;
22468;SDS011;11401;50.792;4.352;2022-12-07T17:14:14;7.00;;;3.28;;
22468;SDS011;11401;50.792;4.352;2022-12-07T17:17:00;2.97;;;2.67;;
22468;SDS011;11401;50.792;4.352;2022-12-07T17:19:27;3.78;;;3.05;;
22468;SDS011;11401;50.792;4.352;2022-12-07T17:21:54;4.97;;;4.03;;
22468;SDS011;11401;50.792;4.352;2022-12-07T17:24:21;3.75;;;2.63;;